23°C
Gosport, Hampshire, United Kingdom
Language:  English
Updated05/08/2020 17:25:00 
 

Nearby METAR Reports

 

EGHI - Southampton Wx Centre, United Kingdom
Distance from station: NW 15mi, 24km
Updated: 05-Aug-2020 17:20:00
Few Clouds
Few Clouds
 Wind from SSW
Wind: SSW 18 mph , 30 km/h
Temperature: 22°C
Dew Point: 14°C
Humidity: 61%
Barometer: 1013 hPa
Clouds: Few Clouds
Visibility: 6 miles , 10 km
Cloud details: Few Clouds 853 m
2020/08/05 16:20 EGHI 051620Z 20016KT 150V230 9999 FEW028 22/14 Q1013
EGHH - Bournemouth Airport, United Kingdom
Distance from station: W 30mi, 49km
Updated: 05-Aug-2020 17:20:00
Mostly cloudy
Mostly cloudy
 Wind from SSW
Wind: SSW 12 mph , 19 km/h
Temperature: 20°C
Dew Point: 15°C
Humidity: 73%
Barometer: 1013 hPa
Clouds: Mostly cloudy
Visibility: 6 miles , 10 km
Cloud details: Few Clouds 488 m
Mostly cloudy 792 m
2020/08/05 16:20 EGHH 051620Z 20010KT 9999 FEW016 BKN026 20/15 Q1013
EGVP - Middle Wallop Airfield, United Kingdom
Distance from station: NW 31mi, 49km
Updated: 05-Aug-2020 16:50:00
Mostly cloudy
Mostly cloudy
 Wind from SSW
Wind: SSW 15 mph , 24 km/h
Temperature: 21°C
Dew Point: 15°C
Humidity: 69%
Barometer: 1012 hPa
Clouds: Mostly cloudy
Visibility: 6 miles , 10 km
Cloud details: Few Clouds 610 m
Mostly cloudy 914 m
2020/08/05 15:50 EGVP 051550Z 20013KT 9999 FEW020 BKN030 21/15 Q1012 TEMPO 7000 -SHRA SCT010 RMK BLU TEMPO GRN
 
EGVO - RAF Odiham, United Kingdom
Distance from station: NNE 32mi, 52km
Updated: 05-Aug-2020 16:50:00
Partly cloudy
Partly cloudy
 Wind from SSW
Wind: SSW 23 mph , 37 km/h
Temperature: 21°C
Dew Point: 14°C
Humidity: 64%
Barometer: 1013 hPa
Clouds: Partly cloudy
Visibility: 6 miles , 10 km
Cloud details: Few Clouds 914 m
Partly cloudy 3962 m
2020/08/05 15:50 EGVO 051550Z 21020KT 9999 FEW030 SCT130 21/14 Q1013 NOSIG RMK BLU BLU
EGKA - Shoreham Airport, United Kingdom
Distance from station: E 37mi, 59km
Updated: 05-Aug-2020 17:20:00
Few Clouds
Few Clouds
 Wind from SSW
Wind: SSW 12 mph , 19 km/h
Temperature: 20°C
Dew Point: 15°C
Humidity: 73%
Barometer: 1014 hPa
Clouds: Few Clouds
Visibility: 6 miles , 10 km
Cloud details: Few Clouds 549 m
2020/08/05 16:20 EGKA 051620Z 20010KT 9999 FEW018 20/15 Q1014
EGDM - Boscombe Down, United Kingdom
Distance from station: NW 38mi, 61km
Updated: 05-Aug-2020 16:50:00
Mostly cloudy
Mostly cloudy
 Wind from SSW
Wind: SSW 18 mph , 30 km/h
Temperature: 21°C
Dew Point: 15°C
Humidity: 69%
Barometer: 1012 hPa
Clouds: Mostly cloudy
Visibility: 6 miles , 10 km
Cloud details: Mostly cloudy 792 m
Mostly cloudy 1524 m
2020/08/05 15:50 EGDM 051550Z 21016KT 9999 BKN026 BKN050 21/15 Q1012 TEMPO 7000 RA BKN020 RMK BLU TEMPO WHT
 
EGLF - Farnborough, United Kingdom
Distance from station: NNE 38mi, 61km
Updated: 05-Aug-2020 17:20:00
Clear
Clear
 Wind from SW
Wind: SW 17 mph , 28 km/h
Temperature: 22°C
Dew Point: 13°C
Humidity: 57%
Barometer: 1013 hPa
Clouds: Clear
Visibility: 6 miles , 10 km
2020/08/05 16:20 EGLF 051620Z AUTO 22015KT 9999 NCD 22/13 Q1013
EGKK - Gatwick Airport, United Kingdom
Distance from station: ENE 49mi, 78km
Updated: 05-Aug-2020 17:20:00
Clear
Clear
 Wind from SSW
Wind: SSW 15 mph , 24 km/h, Gust: 26 mph , 43 km/h
Temperature: 21°C
Dew Point: 10°C
Humidity: 50%
Barometer: 1013 hPa
Summary: Clear
Visibility: greater than 7 miles , 10 km
2020/08/05 16:20 EGKK 051620Z 21013G23KT 180V240 CAVOK 21/10 Q1013
EGLL - Heathrow Airport, United Kingdom
Distance from station: NNE 57mi, 91km
Updated: 05-Aug-2020 17:20:00
Clear
Clear
 Wind from SW
Wind: SW 21 mph , 33 km/h
Temperature: 24°C
Dew Point: 11°C
Humidity: 44%
Barometer: 1013 hPa
Clouds: Clear
Visibility: 6 miles , 10 km
2020/08/05 16:20 EGLL 051620Z AUTO 23018KT 9999 NCD 24/11 Q1013
 
EGUB - RAF Benson, United Kingdom
Distance from station: N 58mi, 93km
Updated: 05-Aug-2020 16:50:00

 Wind from SSW
Wind: SSW 16 mph , 26 km/h
Temperature: 22°C
Dew Point: 14°C
Humidity: 61%
Barometer: 1012 hPa
2020/08/05 15:50 EGUB 051550Z AUTO 20014KT //// // ///////// 22/14 Q1012
EGWU - RAF Northolt, United Kingdom
Distance from station: NNE 62mi, 99km
Updated: 05-Aug-2020 16:50:00
Clear
Clear
 Wind from SW
Wind: SW 16 mph , 26 km/h
Temperature: 24°C
Dew Point: 11°C
Humidity: 44%
Barometer: 1012 hPa
Summary: Clear
Visibility: greater than 7 miles , 10 km
2020/08/05 15:50 EGWU 051550Z 22014KT CAVOK 24/11 Q1012 NOSIG RMK BLU BLU
EGKB - Biggin Hill Airport, United Kingdom
Distance from station: NE 62mi, 100km
Updated: 05-Aug-2020 17:20:00
Clear
Clear
 Wind from SSW
Wind: SSW 17 mph , 28 km/h
Temperature: 22°C
Dew Point: 10°C
Humidity: 47%
Barometer: 1013 hPa
Summary: Clear
Visibility: greater than 7 miles , 10 km
2020/08/05 16:20 EGKB 051620Z 21015KT CAVOK 22/10 Q1013
 
EGDY - RNAS Yeovilton, United Kingdom
Distance from station: WNW 66mi, 107km
Updated: 05-Aug-2020 17:18:00
Mostly cloudy
Mostly cloudy
 Wind from SSW
Wind: SSW 18 mph , 30 km/h
Temperature: 19°C
Dew Point: 17°C
Humidity: 88%
Barometer: 1011 hPa
Clouds: Mostly cloudy
Visibility: 6 miles , 10 km
Cloud details: Few Clouds 183 m
Partly cloudy 305 m
Mostly cloudy 610 m
2020/08/05 16:18 EGDY 051618Z 20016KT 9999 FEW006 SCT010 BKN020 19/17 Q1011 RESHRA TEMPO 9999 SCT015 RMK GRN TEMPO WHT
EGUO - Colerne Airfield, United Kingdom
Distance from station: NW 67mi, 108km
Updated: 14-Feb-2019 22:50:00
NOT Current
Clear
Clear
 Wind from ENE
Wind: ENE 1 mph , 2 km/h
Temperature: 1°C
Dew Point: 0°C
Humidity: 93%
Barometer: 1029 hPa
Summary: Clear
Visibility: greater than 7 miles , 10 km
2019/02/14 22:50 EGUO 142250Z 06001KT CAVOK 01/00 Q1029 BLU NOSIG
EGVA - RAF Fairford, United Kingdom
Distance from station: NNW 67mi, 108km
Updated: 05-Aug-2020 16:56:00
Overcast
Overcast
 Wind from SW
Wind: SW 15 mph , 24 km/h, Gust: 23 mph , 37 km/h
Temperature: 20°C
Dew Point: 16°C
Humidity: 78%
Barometer: 1011.2 hPa
Clouds: Overcast
Visibility: 6 miles , 10 km
Cloud details: Few Clouds 884 m
Mostly cloudy 1036 m
Mostly cloudy 1341 m
Overcast 1676 m
2020/08/05 15:56 EGVA 051556Z AUTO 22013G20KT 9999 FEW029 BKN034 BKN044 OVC055 20/16 A2986 RMK AO2 RAB30E46DZB46E49 SLP113 P0000 T02020160 $
 
EGVN - RAF Brize Norton, United Kingdom
Distance from station: NNW 71mi, 114km
Updated: 05-Aug-2020 16:50:00
Light rain, Mostly cloudy
Light rain, Mostly cloudy
 Wind from SSW
Wind: SSW 12 mph , 19 km/h
Temperature: 20°C
Dew Point: 15°C
Humidity: 73%
Barometer: 1011 hPa
Summary: Light rain
Clouds: Mostly cloudy
Visibility: 6 miles , 10 km
Cloud details: Partly cloudy 762 m
Mostly cloudy 1280 m
2020/08/05 15:50 EGVN 051550Z 21010KT 9999 -RA SCT025 BKN042 20/15 Q1011 TEMPO BKN023 RMK BLU TEMPO WHT
EGLC - London City Airport, United Kingdom
Distance from station: NE 71mi, 115km
Updated: 05-Aug-2020 17:20:00
Clear
Clear
 Wind from SW
Wind: SW 15 mph , 24 km/h
Temperature: 25°C
Dew Point: 8°C
Humidity: 34%
Barometer: 1012 hPa
Clouds: Clear
Visibility: 6 miles , 10 km
2020/08/05 16:20 EGLC 051620Z AUTO 22013KT 190V250 9999 NCD 25/08 Q1012
EGGD - Bristol Airport, United Kingdom
Distance from station: WNW 80mi, 128km
Updated: 05-Aug-2020 17:20:00
Overcast
Overcast
 Wind from S
Wind: S 12 mph , 19 km/h
Temperature: 18°C
Dew Point: 16°C
Humidity: 88%
Barometer: 1011 hPa
Clouds: Overcast
Visibility: 6 miles , 10 km
Cloud details: Mostly cloudy 305 m
Overcast 488 m
2020/08/05 16:20 EGGD 051620Z AUTO 19010KT 9999 BKN010 OVC016 18/16 Q1011
 
LFRC - Cherbourg-Maupertus Airport, France
Distance from station: S 81mi, 130km
Updated: 05-Aug-2020 17:00:00
Mostly cloudy
Mostly cloudy
 Wind from SW
Wind: SW 16 mph , 26 km/h
Temperature: 25°C
Dew Point: 15°C
Humidity: 54%
Barometer: 1014 hPa
Clouds: Mostly cloudy
Visibility: 6 miles , 10 km
Cloud details: Few Clouds 1067 m
Partly cloudy 4572 m
Mostly cloudy 5486 m
2020/08/05 16:00 LFRC 051600Z AUTO 22014KT 9999 FEW035 SCT150 BKN180 25/15 Q1014 NOSIG
EGGW - Luton Airport, United Kingdom
Distance from station: NNE 82mi, 132km
Updated: 05-Aug-2020 17:20:00
Clear
Clear
 Wind from SW
Wind: SW 17 mph , 28 km/h
Temperature: 22°C
Dew Point: 11°C
Humidity: 50%
Barometer: 1012 hPa
Clouds: Clear
Visibility: 6 miles , 10 km
2020/08/05 16:20 EGGW 051620Z AUTO 22015KT 9999 NCD 22/11 Q1012